Time;durP1;ratioP1;P1;durP2;ratioP2;P2;SDS_P1;SDS_P2;PMS_P1;PMS_P2;Temp;Humidity;BMP_temperature;BMP_pressure;BME280_temperature;BME280_humidity;BME280_pressure;Samples;Min_cycle;Max_cycle;Signal;HPM_P1;HPM_P2
2022/09/15 00:00:52;;;;;;;12.07;6.15;;;16.80;99.90;;;;;;5038989;28;20324;-58
2022/09/15 00:03:20;;;;;;;13.75;7.03;;;16.80;99.90;;;;;;5039048;28;20057;-59
2022/09/15 00:05:47;;;;;;;13.65;6.57;;;16.80;99.90;;;;;;5022442;28;20030;-58
2022/09/15 00:08:13;;;;;;;10.45;6.03;;;16.80;99.90;;;;;;5038709;28;20037;-58
2022/09/15 00:10:57;;;;;;;10.40;5.10;;;16.80;99.90;;;;;;5039085;28;20102;-58
2022/09/15 00:13:24;;;;;;;10.15;5.60;;;16.80;99.90;;;;;;5036653;28;20037;-59
2022/09/15 00:15:51;;;;;;;12.83;6.17;;;16.70;99.90;;;;;;4689050;28;9999924;-58
2022/09/15 00:18:18;;;;;;;10.60;5.78;;;16.70;99.90;;;;;;5038891;28;20026;-57
2022/09/15 00:20:44;;;;;;;18.42;6.60;;;16.70;99.90;;;;;;5039190;28;20256;-59
2022/09/15 00:23:12;;;;;;;9.77;6.05;;;16.60;99.90;;;;;;5038493;28;20061;-59
2022/09/15 00:25:49;;;;;;;17.65;7.10;;;16.60;99.90;;;;;;5039010;28;20056;-59
2022/09/15 00:28:18;;;;;;;10.80;6.05;;;16.50;99.90;;;;;;5038648;28;20042;-57
2022/09/15 00:30:49;;;;;;;12.85;6.13;;;16.50;99.90;;;;;;5038585;28;20026;-60
2022/09/15 00:33:16;;;;;;;16.33;5.75;;;16.50;99.90;;;;;;5038577;28;20053;-59
2022/09/15 00:35:44;;;;;;;8.88;5.20;;;16.40;99.90;;;;;;5038780;28;20103;-58
2022/09/15 00:38:11;;;;;;;9.25;6.05;;;16.40;99.90;;;;;;5038300;28;20030;-60
2022/09/15 00:40:51;;;;;;;7.07;5.30;;;16.30;99.90;;;;;;5038656;28;20038;-58
2022/09/15 00:43:19;;;;;;;7.78;5.30;;;16.30;99.90;;;;;;5038066;28;20057;-57
2022/09/15 00:45:47;;;;;;;15.18;5.88;;;16.30;99.90;;;;;;5028051;28;20550;-59
2022/09/15 00:48:18;;;;;;;9.18;5.45;;;16.30;99.90;;;;;;5038586;28;20097;-59
2022/09/15 00:50:47;;;;;;;12.88;5.72;;;16.40;99.90;;;;;;5022175;28;20329;-57
2022/09/15 00:53:14;;;;;;;9.48;5.30;;;16.40;99.90;;;;;;5037316;28;20030;-59
2022/09/15 00:55:46;;;;;;;11.50;5.90;;;16.30;99.90;;;;;;5037248;28;20297;-58
2022/09/15 00:58:35;;;;;;;16.10;5.47;;;16.30;99.90;;;;;;5005460;28;20033;-58
2022/09/15 01:01:02;;;;;;;11.45;5.78;;;16.40;99.90;;;;;;5035932;28;20086;-58
2022/09/15 01:03:31;;;;;;;10.48;6.10;;;16.30;99.90;;;;;;5021453;28;20046;-58
2022/09/15 01:06:06;;;;;;;10.93;5.72;;;16.40;99.90;;;;;;5033903;28;20030;-59
2022/09/15 01:08:39;;;;;;;8.65;6.53;;;16.30;99.90;;;;;;5022236;28;20097;-58
2022/09/15 01:11:06;;;;;;;13.10;6.72;;;16.30;99.90;;;;;;5003084;28;20102;-58
2022/09/15 01:13:32;;;;;;;11.68;5.97;;;16.20;99.90;;;;;;5037727;28;20068;-58
2022/09/15 01:16:37;;;;;;;8.65;6.40;;;16.20;99.90;;;;;;5037007;28;20053;-58
2022/09/15 01:19:16;;;;;;;;;;;16.20;99.90;;;;;;5038069;28;20073;-58
2022/09/15 01:21:49;;;;;;;18.88;6.80;;;16.20;99.90;;;;;;5037550;28;19936;-59
2022/09/15 01:24:34;;;;;;;13.75;6.88;;;16.20;99.90;;;;;;5037408;28;20053;-59
2022/09/15 01:27:07;;;;;;;13.27;7.18;;;16.20;99.90;;;;;;5037767;28;20101;-59
2022/09/15 01:30:18;;;;;;;12.80;6.05;;;16.20;99.90;;;;;;5037601;28;20033;-59
2022/09/15 01:33:10;;;;;;;11.35;7.20;;;16.20;99.90;;;;;;5037392;28;20045;-59
2022/09/15 01:35:47;;;;;;;13.30;7.75;;;16.10;99.90;;;;;;5037414;28;20090;-59
2022/09/15 01:38:27;;;;;;;13.38;6.88;;;16.10;99.90;;;;;;5037320;28;20076;-58
2022/09/15 01:40:58;;;;;;;12.73;7.35;;;16.10;99.90;;;;;;5036886;28;20053;-58
2022/09/15 01:43:25;;;;;;;10.43;6.97;;;16.00;99.90;;;;;;5036936;28;20105;-59
2022/09/15 01:45:52;;;;;;;12.95;6.60;;;16.00;99.90;;;;;;5020547;28;20053;-60
2022/09/15 01:48:21;;;;;;;12.95;6.95;;;16.00;99.90;;;;;;5037472;28;20043;-61
2022/09/15 01:50:50;;;;;;;10.30;6.50;;;16.00;99.90;;;;;;5020705;28;20026;-59
2022/09/15 01:53:18;;;;;;;9.50;6.65;;;15.90;99.90;;;;;;5020555;28;20089;-59
2022/09/15 01:55:53;;;;;;;12.57;7.68;;;15.80;99.90;;;;;;5036664;28;20029;-58
2022/09/15 01:58:20;;;;;;;13.55;8.18;;;15.80;99.90;;;;;;5037129;28;20072;-59
2022/09/15 02:01:01;;;;;;;18.38;8.80;;;15.80;99.90;;;;;;5036641;28;20128;-58
2022/09/15 02:03:34;;;;;;;12.27;7.50;;;15.80;99.90;;;;;;5026801;28;20022;-58
2022/09/15 02:06:12;;;;;;;18.97;9.90;;;15.70;99.90;;;;;;5020080;28;20097;-59
2022/09/15 02:08:43;;;;;;;12.05;7.07;;;15.70;99.90;;;;;;4996148;28;20060;-59
2022/09/15 02:11:18;;;;;;;11.00;6.82;;;15.70;99.90;;;;;;5036389;28;20041;-59
2022/09/15 02:14:02;;;;;;;15.75;8.18;;;15.60;99.90;;;;;;5025967;28;20105;-59
2022/09/15 02:16:33;;;;;;;10.52;6.88;;;15.60;99.90;;;;;;5036202;28;20041;-58
2022/09/15 02:19:20;;;;;;;12.60;7.43;;;15.50;99.90;;;;;;5016439;28;20027;-57
2022/09/15 02:22:16;;;;;;;11.65;7.35;;;15.40;99.90;;;;;;5023609;28;20065;-58
2022/09/15 02:24:50;;;;;;;10.73;7.43;;;15.40;99.90;;;;;;5036321;28;20030;-57
2022/09/15 02:27:21;;;;;;;14.48;8.27;;;15.30;99.90;;;;;;5019995;28;20275;-59
2022/09/15 02:29:47;;;;;;;11.88;7.53;;;15.30;99.90;;;;;;5016868;28;20117;-59
2022/09/15 02:32:15;;;;;;;22.40;8.38;;;15.30;99.90;;;;;;5024803;28;20041;-59
2022/09/15 02:34:45;;;;;;;16.75;8.50;;;15.20;99.90;;;;;;5036177;28;20033;-59
2022/09/15 02:37:12;;;;;;;18.75;8.60;;;15.20;99.90;;;;;;5035118;28;20064;-59
2022/09/15 02:39:42;;;;;;;14.70;8.43;;;15.20;99.90;;;;;;5016505;28;20026;-58
2022/09/15 02:42:09;;;;;;;13.85;9.05;;;15.20;99.90;;;;;;5020801;28;20039;-58
2022/09/15 02:44:36;;;;;;;15.65;7.97;;;15.20;99.90;;;;;;5036095;28;20060;-58
2022/09/15 02:47:03;;;;;;;11.90;8.50;;;15.20;99.90;;;;;;5036495;28;20061;-57
2022/09/15 02:49:30;;;;;;;17.17;9.57;;;15.20;99.90;;;;;;5036834;28;20044;-59
2022/09/15 02:51:56;;;;;;;13.00;8.25;;;15.20;99.90;;;;;;5036528;28;20037;-58
2022/09/15 02:54:23;;;;;;;16.05;9.43;;;15.20;99.90;;;;;;5035850;28;20101;-57
2022/09/15 02:56:50;;;;;;;13.45;9.25;;;15.20;99.90;;;;;;5036687;28;20037;-58
2022/09/15 02:59:16;;;;;;;12.15;8.63;;;15.20;99.90;;;;;;5036209;28;20034;-58
2022/09/15 03:01:43;;;;;;;13.88;8.63;;;15.10;99.90;;;;;;5036497;28;20094;-59
2022/09/15 03:04:10;;;;;;;13.32;8.43;;;15.00;99.90;;;;;;5036189;28;20033;-58
2022/09/15 03:06:37;;;;;;;10.50;8.10;;;14.90;99.90;;;;;;5035826;28;20038;-58
2022/09/15 03:09:05;;;;;;;19.33;8.90;;;14.90;99.90;;;;;;5036287;28;20033;-57
2022/09/15 03:11:32;;;;;;;15.60;8.98;;;14.90;99.90;;;;;;5036418;28;20085;-59
2022/09/15 03:14:01;;;;;;;13.98;9.23;;;14.90;99.90;;;;;;5035752;28;20081;-58
2022/09/15 03:16:29;;;;;;;18.45;9.20;;;14.90;99.90;;;;;;5036066;28;20038;-59
2022/09/15 03:18:57;;;;;;;19.00;9.27;;;14.90;99.90;;;;;;5036291;28;20033;-59
2022/09/15 03:21:24;;;;;;;15.00;9.40;;;14.90;99.90;;;;;;5036368;28;20041;-58
2022/09/15 03:23:51;;;;;;;11.98;8.35;;;14.90;99.90;;;;;;5035508;28;20029;-58
2022/09/15 03:26:18;;;;;;;16.30;10.02;;;14.90;99.90;;;;;;5036216;28;20033;-58
2022/09/15 03:28:44;;;;;;;14.18;9.02;;;15.00;99.90;;;;;;5036291;28;20065;-58
2022/09/15 03:31:11;;;;;;;14.70;8.60;;;15.00;99.90;;;;;;5036340;28;20121;-56
2022/09/15 03:33:39;;;;;;;12.40;7.85;;;15.00;99.90;;;;;;5036077;28;20034;-58
2022/09/15 03:36:06;;;;;;;13.07;8.27;;;15.00;99.90;;;;;;5035969;28;20110;-58
2022/09/15 03:38:33;;;;;;;14.13;7.80;;;15.00;99.90;;;;;;5035918;28;20044;-57
2022/09/15 03:41:01;;;;;;;11.05;8.27;;;15.00;99.90;;;;;;5035056;28;20053;-59
2022/09/15 03:43:29;;;;;;;13.35;7.70;;;15.00;99.90;;;;;;5019488;28;20093;-59
2022/09/15 03:45:56;;;;;;;10.77;7.82;;;15.00;99.90;;;;;;5035255;28;20034;-60
2022/09/15 03:48:23;;;;;;;10.30;7.68;;;15.00;99.90;;;;;;5038415;28;21136;-59
2022/09/15 03:50:50;;;;;;;13.80;8.40;;;14.90;99.90;;;;;;5039446;28;20097;-58
2022/09/15 03:53:17;;;;;;;11.60;7.47;;;14.90;99.90;;;;;;5019951;28;20061;-59
2022/09/15 03:55:44;;;;;;;13.70;7.78;;;14.90;99.90;;;;;;5032853;28;20030;-56
2022/09/15 03:58:12;;;;;;;11.43;8.07;;;14.90;99.90;;;;;;5038818;28;20114;-57
2022/09/15 04:00:39;;;;;;;17.23;7.68;;;15.00;99.90;;;;;;5039261;28;20068;-58
2022/09/15 04:03:07;;;;;;;13.70;9.27;;;15.00;99.90;;;;;;5036161;28;20040;-57
2022/09/15 04:05:34;;;;;;;24.02;10.27;;;14.90;99.90;;;;;;5037697;28;20030;-60
2022/09/15 04:08:01;;;;;;;15.35;10.05;;;14.80;99.90;;;;;;5038727;28;20033;-58
2022/09/15 04:10:28;;;;;;;13.18;8.70;;;14.90;99.90;;;;;;5021723;28;20097;-58
2022/09/15 04:12:54;;;;;;;10.32;7.60;;;14.90;99.90;;;;;;5038582;28;20057;-58
2022/09/15 04:15:21;;;;;;;14.43;8.43;;;14.90;99.90;;;;;;5039096;28;20065;-58
2022/09/15 04:17:48;;;;;;;13.48;7.78;;;14.80;99.90;;;;;;5038871;28;20033;-57
2022/09/15 04:20:16;;;;;;;16.52;8.45;;;14.80;99.90;;;;;;5038753;28;20022;-58
2022/09/15 04:22:43;;;;;;;12.68;8.07;;;14.80;99.90;;;;;;5038218;28;20089;-58
2022/09/15 04:25:10;;;;;;;12.60;9.02;;;14.70;99.90;;;;;;5038979;28;20077;-58
2022/09/15 04:27:37;;;;;;;13.27;7.88;;;14.70;99.90;;;;;;5038538;28;20304;-57
2022/09/15 04:30:05;;;;;;;13.95;7.40;;;14.70;99.90;;;;;;5038906;28;20021;-56
2022/09/15 04:32:34;;;;;;;15.68;8.32;;;14.70;99.90;;;;;;5038558;28;20053;-58
2022/09/15 04:35:02;;;;;;;14.10;8.15;;;14.70;99.90;;;;;;5038864;28;20121;-58
2022/09/15 04:37:30;;;;;;;13.80;8.20;;;14.70;99.90;;;;;;5038307;28;20061;-57
2022/09/15 04:39:57;;;;;;;10.40;7.93;;;14.70;99.90;;;;;;5038177;28;20060;-60
2022/09/15 04:42:24;;;;;;;13.80;9.38;;;14.70;99.90;;;;;;5038562;28;20056;-57
2022/09/15 04:44:50;;;;;;;18.30;8.20;;;14.70;99.90;;;;;;5038291;28;20102;-58
2022/09/15 04:47:18;;;;;;;13.32;7.65;;;14.70;99.90;;;;;;5038272;28;20029;-58
2022/09/15 04:49:45;;;;;;;14.23;7.28;;;14.60;99.90;;;;;;5038441;28;20037;-58
2022/09/15 04:52:11;;;;;;;15.43;7.63;;;14.50;99.90;;;;;;5038107;28;20093;-57
2022/09/15 04:54:38;;;;;;;11.82;6.55;;;14.40;99.90;;;;;;5038415;28;20093;-57
2022/09/15 04:57:05;;;;;;;11.73;6.72;;;14.40;99.90;;;;;;5037447;28;20034;-60
2022/09/15 04:59:32;;;;;;;9.05;5.72;;;14.40;99.90;;;;;;5037429;28;20046;-60
2022/09/15 05:01:59;;;;;;;11.48;6.38;;;14.40;99.90;;;;;;5038130;28;20045;-58
2022/09/15 05:04:26;;;;;;;8.40;5.80;;;14.40;99.90;;;;;;5038049;28;20030;-60
2022/09/15 05:06:52;;;;;;;12.85;6.13;;;14.40;99.90;;;;;;5037798;28;20061;-59
2022/09/15 05:09:19;;;;;;;10.25;6.78;;;14.40;99.90;;;;;;5038144;28;20068;-60
2022/09/15 05:11:46;;;;;;;9.45;5.50;;;14.30;99.90;;;;;;5037774;28;20053;-60
2022/09/15 05:14:14;;;;;;;9.02;6.25;;;14.30;99.90;;;;;;5033725;28;20030;-59
2022/09/15 05:16:41;;;;;;;13.57;6.80;;;14.30;99.90;;;;;;5037985;28;20358;-57
2022/09/15 05:19:08;;;;;;;9.38;5.55;;;14.30;99.90;;;;;;5037584;28;20085;-59
2022/09/15 05:21:35;;;;;;;9.13;6.03;;;14.30;99.90;;;;;;5037832;28;20045;-59
2022/09/15 05:24:02;;;;;;;10.88;5.85;;;14.30;99.90;;;;;;5037475;28;20054;-59
2022/09/15 05:26:29;;;;;;;10.35;5.82;;;14.40;99.90;;;;;;5037757;28;20049;-59
2022/09/15 05:28:56;;;;;;;10.38;6.20;;;14.30;99.90;;;;;;5037593;28;20029;-57
2022/09/15 05:31:32;;;;;;;7.45;5.25;;;14.30;99.90;;;;;;5037074;28;20048;-58
2022/09/15 05:34:01;;;;;;;8.18;5.68;;;14.10;99.90;;;;;;5037370;28;20109;-58
2022/09/15 05:36:28;;;;;;;11.65;6.65;;;14.20;99.90;;;;;;5037390;28;20034;-57
2022/09/15 05:38:55;;;;;;;9.10;5.65;;;14.10;99.90;;;;;;5035895;28;20053;-58
2022/09/15 05:41:22;;;;;;;13.05;5.55;;;14.20;99.90;;;;;;5036642;28;20052;-58
2022/09/15 05:43:49;;;;;;;14.00;5.57;;;14.20;99.90;;;;;;5036389;28;20094;-58
2022/09/15 05:46:17;;;;;;;12.57;5.70;;;14.20;99.90;;;;;;5036448;28;20053;-59
2022/09/15 05:48:44;;;;;;;15.38;6.45;;;14.30;99.90;;;;;;5037195;28;20038;-58
2022/09/15 05:51:11;;;;;;;9.43;5.00;;;14.30;99.90;;;;;;5036892;28;20113;-57
2022/09/15 05:53:38;;;;;;;10.82;5.22;;;14.30;99.90;;;;;;5036447;28;20041;-60
2022/09/15 05:56:10;;;;;;;17.17;5.65;;;14.30;99.90;;;;;;5036222;28;20065;-59
2022/09/15 05:58:41;;;;;;;16.33;7.13;;;14.30;99.90;;;;;;5035955;28;20030;-57
2022/09/15 06:01:16;;;;;;;23.60;5.22;;;14.40;99.90;;;;;;5036531;28;20064;-58
2022/09/15 06:03:43;;;;;;;8.88;4.15;;;14.30;99.90;;;;;;5021103;28;20088;-58
2022/09/15 06:06:11;;;;;;;11.00;5.18;;;14.20;99.90;;;;;;5019613;28;20041;-58
2022/09/15 06:08:42;;;;;;;11.15;5.88;;;14.10;99.90;;;;;;5036525;28;20052;-58
2022/09/15 06:11:32;;;;;;;12.30;4.65;;;14.20;99.90;;;;;;5034258;28;20072;-58
2022/09/15 06:14:01;;;;;;;10.38;4.65;;;14.20;99.90;;;;;;5036633;28;20034;-58
2022/09/15 06:16:30;;;;;;;10.45;4.68;;;14.30;99.90;;;;;;5036373;28;20105;-58
2022/09/15 06:18:57;;;;;;;10.63;4.90;;;14.30;99.90;;;;;;5035622;28;20034;-60
2022/09/15 06:21:26;;;;;;;9.45;5.50;;;14.40;99.90;;;;;;5036678;28;20026;-57
2022/09/15 06:23:53;;;;;;;9.15;4.90;;;14.40;99.90;;;;;;5035856;28;20038;-58
2022/09/15 06:26:20;;;;;;;5.70;3.97;;;14.40;99.90;;;;;;5036267;28;20030;-59
2022/09/15 06:28:52;;;;;;;8.93;4.93;;;14.40;99.90;;;;;;5035989;28;20045;-57
2022/09/15 06:31:19;;;;;;;8.93;4.75;;;14.40;99.90;;;;;;5036028;28;20085;-58
2022/09/15 06:33:49;;;;;;;6.63;4.80;;;14.40;99.90;;;;;;5036512;28;20069;-59
2022/09/15 06:36:17;;;;;;;10.70;4.75;;;14.40;99.90;;;;;;5035466;28;20093;-58
2022/09/15 06:38:44;;;;;;;9.73;4.10;;;14.40;99.90;;;;;;5036324;28;20068;-59
2022/09/15 06:41:11;;;;;;;7.00;3.95;;;14.50;99.90;;;;;;5035930;28;20102;-58
2022/09/15 06:43:38;;;;;;;10.20;4.65;;;14.60;99.90;;;;;;5034778;28;20044;-59
2022/09/15 06:46:13;;;;;;;11.05;4.82;;;14.60;99.90;;;;;;5035417;28;20167;-57
2022/09/15 06:48:40;;;;;;;7.45;4.28;;;14.70;99.90;;;;;;5035734;28;20041;-56
2022/09/15 06:51:12;;;;;;;9.70;4.10;;;14.70;99.90;;;;;;5035979;28;20195;-59
2022/09/15 06:53:39;;;;;;;12.10;4.60;;;14.60;99.90;;;;;;5035924;28;20064;-59
2022/09/15 06:56:11;;;;;;;10.15;4.13;;;14.70;99.90;;;;;;5034717;28;20037;-59
2022/09/15 06:58:38;;;;;;;7.78;4.53;;;14.60;99.90;;;;;;5035311;28;20041;-59
2022/09/15 07:01:11;;;;;;;9.68;4.07;;;14.70;99.90;;;;;;5018032;28;20073;-59
2022/09/15 07:03:38;;;;;;;5.65;3.78;;;14.70;99.90;;;;;;5023520;28;20053;-58
2022/09/15 07:06:06;;;;;;;15.13;4.68;;;14.80;99.90;;;;;;5010932;28;20061;-58
2022/09/15 07:08:33;;;;;;;9.10;3.75;;;14.80;99.90;;;;;;5016930;28;20030;-60
2022/09/15 07:11:00;;;;;;;7.75;5.20;;;14.80;99.90;;;;;;5033091;28;20110;-58
2022/09/15 07:13:26;;;;;;;7.82;4.55;;;14.90;99.90;;;;;;5032505;28;20058;-59
2022/09/15 07:15:55;;;;;;;7.10;3.83;;;14.90;99.90;;;;;;5034258;28;20105;-60
2022/09/15 07:18:22;;;;;;;11.75;4.43;;;14.90;99.90;;;;;;5027110;28;20052;-60
2022/09/15 07:20:49;;;;;;;10.82;4.55;;;14.90;99.90;;;;;;5031938;28;20097;-59
2022/09/15 07:23:16;;;;;;;13.07;5.43;;;14.80;99.90;;;;;;5027679;28;20093;-59
2022/09/15 07:25:43;;;;;;;12.80;4.25;;;14.90;99.90;;;;;;5037809;28;20101;-58
2022/09/15 07:28:11;;;;;;;8.32;4.47;;;14.90;99.90;;;;;;5031943;28;20072;-59
2022/09/15 07:30:38;;;;;;;7.50;4.43;;;14.90;99.90;;;;;;5039195;28;20034;-58
2022/09/15 07:33:07;;;;;;;11.18;4.70;;;14.90;99.90;;;;;;5038267;28;20048;-59
2022/09/15 07:35:34;;;;;;;9.82;6.00;;;15.00;99.90;;;;;;5022327;28;20050;-59
2022/09/15 07:38:01;;;;;;;7.45;4.63;;;15.00;99.90;;;;;;5037481;28;20093;-58
2022/09/15 07:40:28;;;;;;;13.10;4.35;;;15.10;99.90;;;;;;5038250;28;20138;-56
2022/09/15 07:42:55;;;;;;;12.82;4.63;;;15.20;99.90;;;;;;5038400;28;20106;-59
2022/09/15 07:45:21;;;;;;;11.13;4.88;;;15.40;99.90;;;;;;5039171;28;20069;-59
2022/09/15 07:47:51;;;;;;;7.68;4.90;;;15.40;99.90;;;;;;5038165;28;21282;-60
2022/09/15 07:50:18;;;;;;;9.90;4.60;;;15.50;99.90;;;;;;5038046;28;20126;-59
2022/09/15 07:52:45;;;;;;;9.30;5.10;;;15.50;99.90;;;;;;5038559;28;20037;-59
2022/09/15 07:55:12;;;;;;;9.32;4.45;;;15.50;99.90;;;;;;5038279;28;20085;-60
2022/09/15 07:57:38;;;;;;;5.95;4.13;;;15.50;99.90;;;;;;5036765;28;20046;-58
2022/09/15 08:00:06;;;;;;;10.75;4.43;;;15.60;99.90;;;;;;5030780;28;20034;-58
2022/09/15 08:02:34;;;;;;;9.15;4.15;;;15.60;99.90;;;;;;5036966;28;20057;-59
2022/09/15 08:05:01;;;;;;;14.95;4.60;;;15.60;99.90;;;;;;5038525;28;20057;-60
2022/09/15 08:07:27;;;;;;;10.88;5.13;;;15.70;99.90;;;;;;5038496;28;20058;-59
2022/09/15 08:09:54;;;;;;;13.95;5.03;;;15.70;99.90;;;;;;5038024;28;20065;-58
2022/09/15 08:12:21;;;;;;;10.63;4.95;;;15.80;99.90;;;;;;5038213;28;20094;-59
2022/09/15 08:14:48;;;;;;;7.15;6.38;;;15.80;99.90;;;;;;5038208;28;20174;-60
2022/09/15 08:17:14;;;;;;;10.13;4.72;;;15.80;99.90;;;;;;5038490;28;20047;-59
2022/09/15 08:19:41;;;;;;;9.95;5.05;;;15.80;99.90;;;;;;5037281;28;20033;-58
2022/09/15 08:22:08;;;;;;;11.35;5.13;;;15.80;99.90;;;;;;5038241;28;20065;-58
2022/09/15 08:24:36;;;;;;;10.20;4.82;;;15.70;99.90;;;;;;5035352;28;20034;-58
2022/09/15 08:27:03;;;;;;;12.95;4.28;;;15.80;99.90;;;;;;5038359;28;20057;-56
2022/09/15 08:29:29;;;;;;;13.25;5.05;;;15.70;99.90;;;;;;5038186;28;20093;-58
2022/09/15 08:31:56;;;;;;;9.93;3.88;;;15.70;99.90;;;;;;5038167;28;20054;-59
2022/09/15 08:34:23;;;;;;;10.30;5.35;;;15.70;99.90;;;;;;5036912;28;20054;-60
2022/09/15 08:36:50;;;;;;;12.10;4.70;;;15.70;99.90;;;;;;5038207;28;20038;-57
2022/09/15 08:39:17;;;;;;;10.20;6.03;;;15.90;99.90;;;;;;5038083;28;20041;-60
2022/09/15 08:41:47;;;;;;;10.05;4.28;;;16.00;99.90;;;;;;5038160;28;20069;-59
2022/09/15 08:44:35;;;;;;;10.80;4.40;;;16.10;99.90;;;;;;5038162;28;20581;-59
2022/09/15 08:47:26;;;;;;;14.25;4.70;;;16.20;99.90;;;;;;5029013;28;20070;-60
2022/09/15 08:50:37;;;;;;;8.93;4.25;;;16.20;99.90;;;;;;5022600;28;20038;-60
2022/09/15 08:53:08;;;;;;;14.38;4.18;;;16.10;99.90;;;;;;5037944;28;20054;-61
2022/09/15 08:55:39;;;;;;;12.88;4.00;;;16.10;99.90;;;;;;5038090;28;20065;-59
2022/09/15 08:58:17;;;;;;;7.43;3.88;;;16.10;99.90;;;;;;5038031;28;20045;-59
2022/09/15 09:00:50;;;;;;;11.02;4.22;;;16.20;99.90;;;;;;5017665;28;20062;-60
2022/09/15 09:03:23;;;;;;;10.32;3.88;;;16.30;99.90;;;;;;5034838;28;20989;-59
2022/09/15 09:06:11;;;;;;;15.00;4.20;;;16.40;99.90;;;;;;5037870;28;20061;-59
2022/09/15 09:08:47;;;;;;;12.15;4.65;;;16.50;99.90;;;;;;5037810;28;20101;-59
2022/09/15 09:11:25;;;;;;;11.60;3.88;;;16.60;99.90;;;;;;5037779;28;20133;-59
2022/09/15 09:14:22;;;;;;;12.57;5.00;;;16.60;99.90;;;;;;5037843;28;20044;-59
2022/09/15 09:16:56;;;;;;;11.20;3.60;;;16.60;99.90;;;;;;5007795;28;20068;-56
2022/09/15 09:19:28;;;;;;;11.15;3.80;;;16.70;99.90;;;;;;5037604;28;20097;-59
2022/09/15 09:22:04;;;;;;;7.60;4.05;;;16.60;99.90;;;;;;5036865;28;20068;-59
2022/09/15 09:24:43;;;;;;;14.80;4.15;;;16.70;99.90;;;;;;5036953;28;20069;-60
2022/09/15 09:27:22;;;;;;;11.15;3.80;;;16.80;99.90;;;;;;5002109;28;20026;-59
2022/09/15 09:29:53;;;;;;;13.35;3.80;;;16.80;99.90;;;;;;5020897;28;20044;-59
2022/09/15 09:32:25;;;;;;;10.60;3.80;;;16.80;99.90;;;;;;5036481;28;20064;-59
2022/09/15 09:35:11;;;;;;;13.65;3.60;;;16.80;99.90;;;;;;5037685;28;20026;-60
2022/09/15 09:37:38;;;;;;;14.05;3.90;;;17.00;99.90;;;;;;5036926;28;20042;-60
2022/09/15 09:40:06;;;;;;;14.48;4.00;;;16.90;99.90;;;;;;5036903;28;20030;-60
2022/09/15 09:42:35;;;;;;;18.50;4.97;;;17.00;99.90;;;;;;5037175;28;20029;-59
2022/09/15 09:45:03;;;;;;;10.32;4.05;;;17.00;99.90;;;;;;5001182;28;20066;-59
2022/09/15 09:47:31;;;;;;;9.73;4.40;;;17.10;99.90;;;;;;5015143;28;20029;-59
2022/09/15 09:49:58;;;;;;;8.10;3.55;;;17.10;99.90;;;;;;5036397;28;20037;-60
2022/09/15 09:52:36;;;;;;;14.02;4.80;;;17.20;99.90;;;;;;5035551;28;20068;-60
2022/09/15 09:55:15;;;;;;;14.18;3.90;;;17.20;99.90;;;;;;5036840;28;20038;-59
2022/09/15 09:57:42;;;;;;;9.38;4.28;;;17.30;99.90;;;;;;5035803;28;20041;-57
2022/09/15 10:00:37;;;;;;;16.52;5.18;;;17.30;99.90;;;;;;5036654;28;20057;-58
2022/09/15 10:03:21;;;;;;;14.27;4.13;;;17.30;99.90;;;;;;5035852;28;20033;-59
2022/09/15 10:06:04;;;;;;;17.67;3.63;;;17.20;99.90;;;;;;5017045;28;20034;-59
2022/09/15 10:08:31;;;;;;;13.75;3.22;;;17.00;99.90;;;;;;5033186;28;20295;-59
2022/09/15 10:11:06;;;;;;;15.20;5.40;;;16.90;99.90;;;;;;5036159;28;20069;-59
2022/09/15 10:13:34;;;;;;;10.43;2.95;;;16.80;99.90;;;;;;5036642;28;20060;-59
2022/09/15 10:16:01;;;;;;;8.95;3.30;;;16.90;99.90;;;;;;5016553;28;20061;-60
2022/09/15 10:18:35;;;;;;;13.88;3.63;;;17.00;99.90;;;;;;5030556;28;20034;-59
2022/09/15 10:21:03;;;;;;;8.00;2.92;;;17.00;99.90;;;;;;5016423;28;20106;-60
2022/09/15 10:23:31;;;;;;;6.32;2.65;;;17.10;99.90;;;;;;5029972;28;20041;-59
2022/09/15 10:26:16;;;;;;;7.25;3.38;;;17.20;99.90;;;;;;5036452;28;20058;-60
2022/09/15 10:28:43;;;;;;;13.98;3.78;;;17.30;99.90;;;;;;5036147;28;20088;-59
2022/09/15 10:31:14;;;;;;;14.90;5.63;;;17.30;99.90;;;;;;5036095;28;20042;-62
2022/09/15 10:33:43;;;;;;;10.13;4.47;;;17.40;99.90;;;;;;5036049;28;20022;-60
2022/09/15 10:36:29;;;;;;;12.80;3.92;;;17.50;99.90;;;;;;5035564;28;20053;-59
2022/09/15 10:39:17;;;;;;;10.88;2.92;;;17.60;99.90;;;;;;5018938;28;20033;-60
2022/09/15 10:42:03;;;;;;;12.48;3.10;;;17.80;99.90;;;;;;5035760;28;20045;-59
2022/09/15 10:44:46;;;;;;;11.95;3.85;;;17.90;99.90;;;;;;5036153;28;20113;-60
2022/09/15 10:47:32;;;;;;;9.00;3.40;;;17.90;99.90;;;;;;5015742;28;20039;-60
2022/09/15 10:50:24;;;;;;;10.30;3.78;;;18.00;99.90;;;;;;5033948;28;20028;-60
2022/09/15 10:52:58;;;;;;;11.23;3.10;;;17.90;99.90;;;;;;5036060;28;20098;-59
2022/09/15 10:55:33;;;;;;;14.27;3.75;;;17.80;99.90;;;;;;5035606;28;20102;-60
2022/09/15 10:58:29;;;;;;;13.70;3.03;;;17.90;99.90;;;;;;5037936;28;20089;-61
2022/09/15 11:01:25;;;;;;;10.38;3.35;;;18.00;99.90;;;;;;5037430;28;20061;-60
2022/09/15 11:04:13;;;;;;;11.98;3.13;;;18.10;99.90;;;;;;5039997;28;20030;-59
2022/09/15 11:06:59;;;;;;;8.02;2.20;;;18.30;99.90;;;;;;5030606;28;20063;-61
2022/09/15 11:09:47;;;;;;;7.43;2.85;;;18.10;99.90;;;;;;5038939;28;20049;-60
2022/09/15 11:12:33;;;;;;;8.93;2.88;;;18.20;99.90;;;;;;5039683;28;20093;-59
2022/09/15 11:15:19;;;;;;;11.02;2.65;;;18.20;99.90;;;;;;5039153;28;20042;-59
2022/09/15 11:17:56;;;;;;;6.95;1.90;;;18.10;99.90;;;;;;5039414;28;20048;-60
2022/09/15 11:20:48;;;;;;;12.70;3.80;;;18.20;99.90;;;;;;5039059;28;20040;-60
2022/09/15 11:23:26;;;;;;;9.75;2.22;;;18.10;99.90;;;;;;5019684;28;20030;-60
2022/09/15 11:26:06;;;;;;;6.65;2.40;;;18.40;99.90;;;;;;5035489;28;20050;-59
2022/09/15 11:28:40;;;;;;;9.73;2.53;;;18.70;99.90;;;;;;5019526;28;20038;-59
2022/09/15 11:31:14;;;;;;;10.77;2.53;;;18.60;99.90;;;;;;5034588;28;20080;-62
2022/09/15 11:33:54;;;;;;;11.30;2.45;;;18.40;99.90;;;;;;5019170;28;20054;-60
2022/09/15 11:36:32;;;;;;;9.23;2.10;;;18.40;99.90;;;;;;5035902;28;20069;-59
2022/09/15 11:39:23;;;;;;;9.30;2.63;;;18.40;99.90;;;;;;5038461;28;20046;-60
2022/09/15 11:42:13;;;;;;;10.00;2.67;;;18.40;99.90;;;;;;5028641;28;20086;-59
2022/09/15 11:44:41;;;;;;;7.00;1.95;;;18.20;99.90;;;;;;5037995;28;20085;-59
2022/09/15 11:47:26;;;;;;;6.63;2.60;;;18.30;99.90;;;;;;5038072;28;20029;-60
2022/09/15 11:50:01;;;;;;;7.50;2.08;;;18.40;99.90;;;;;;5038068;28;20053;-60
2022/09/15 11:52:39;;;;;;;9.40;2.10;;;18.50;99.90;;;;;;5037923;28;20093;-58
2022/09/15 11:55:25;;;;;;;6.28;2.42;;;18.40;99.90;;;;;;5038976;28;20034;-58
2022/09/15 11:58:00;;;;;;;6.95;2.50;;;18.30;99.90;;;;;;5037132;28;20068;-59
2022/09/15 12:00:27;;;;;;;11.02;2.53;;;18.20;99.90;;;;;;5022929;28;20090;-60
2022/09/15 12:03:00;;;;;;;8.27;2.75;;;18.00;99.90;;;;;;5038390;28;20038;-59
2022/09/15 12:05:53;;;;;;;9.30;3.45;;;18.10;99.90;;;;;;5039037;28;20037;-59
2022/09/15 12:08:21;;;;;;;11.80;3.78;;;18.10;99.90;;;;;;5037549;28;20075;-58
2022/09/15 12:10:51;;;;;;;17.02;2.85;;;18.10;99.90;;;;;;5037948;28;20044;-58
2022/09/15 12:13:19;;;;;;;7.43;3.30;;;18.00;99.90;;;;;;5022325;28;20037;-58
2022/09/15 12:15:46;;;;;;;7.05;3.08;;;18.00;99.90;;;;;;5038182;28;20089;-59
2022/09/15 12:18:46;;;;;;;12.18;2.97;;;18.10;99.90;;;;;;5021578;28;20041;-59
2022/09/15 12:21:29;;;;;;;8.30;3.17;;;18.30;99.90;;;;;;5037707;28;20076;-58
2022/09/15 12:24:19;;;;;;;4.95;2.63;;;18.40;99.90;;;;;;5038422;28;20037;-59
2022/09/15 12:26:46;;;;;;;6.53;2.25;;;18.40;99.90;;;;;;5037930;28;20062;-59
2022/09/15 12:29:25;;;;;;;14.07;2.88;;;18.40;99.90;;;;;;5005905;28;20034;-59
2022/09/15 12:32:20;;;;;;;9.20;2.58;;;18.40;99.90;;;;;;5038445;28;20093;-60
2022/09/15 12:35:05;;;;;;;8.95;3.10;;;18.30;99.90;;;;;;5020645;28;20038;-61
2022/09/15 12:37:43;;;;;;;10.85;2.88;;;18.30;99.90;;;;;;5028603;28;20053;-61
2022/09/15 12:40:28;;;;;;;10.35;2.60;;;18.50;99.90;;;;;;5038374;28;20109;-59
2022/09/15 12:42:55;;;;;;;7.20;2.53;;;18.30;99.90;;;;;;5038182;28;20069;-58
2022/09/15 12:45:27;;;;;;;6.70;2.20;;;18.30;99.90;;;;;;5037614;28;20048;-59
2022/09/15 12:47:56;;;;;;;8.68;2.83;;;18.40;99.90;;;;;;5021759;28;20029;-59
2022/09/15 12:50:30;;;;;;;8.10;2.10;;;18.40;99.90;;;;;;5037921;28;20061;-59
2022/09/15 12:53:01;;;;;;;6.57;1.67;;;18.50;99.90;;;;;;5037390;28;20049;-59
2022/09/15 12:55:33;;;;;;;8.63;2.70;;;18.60;99.90;;;;;;5037653;28;20097;-58
2022/09/15 12:58:07;;;;;;;12.65;1.88;;;18.60;99.90;;;;;;5019577;28;20058;-59
2022/09/15 13:00:38;;;;;;;8.00;2.05;;;18.60;99.90;;;;;;5037033;28;20049;-58
2022/09/15 13:03:37;;;;;;;7.05;2.72;;;18.50;99.90;;;;;;5037204;28;20051;-60
2022/09/15 13:06:09;;;;;;;13.88;2.20;;;18.50;99.90;;;;;;5038175;28;20097;-60